createdAt,value
2023-09-30T00:02:26.463Z,65.67
2023-09-30T00:05:16.024Z,65.46
2023-09-30T00:08:03.990Z,65.30
2023-09-30T00:10:54.332Z,65.94
2023-09-30T00:13:42.058Z,64.15
2023-09-30T00:16:29.789Z,61.76
2023-09-30T00:19:17.613Z,64.66
2023-09-30T00:22:05.544Z,62.30
2023-09-30T00:24:53.377Z,61.72
2023-09-30T00:27:42.896Z,61.31
2023-09-30T00:30:30.882Z,61.11
2023-09-30T00:33:18.818Z,61.97
2023-09-30T00:36:11.148Z,65.39
2023-09-30T00:38:59.518Z,62.03
2023-09-30T00:41:47.554Z,61.79
2023-09-30T00:44:36.623Z,61.62
2023-09-30T00:47:25.210Z,61.97
2023-09-30T00:50:14.530Z,62.11
2023-09-30T00:53:02.282Z,64.80
2023-09-30T00:55:50.614Z,63.71
2023-09-30T00:58:40.238Z,65.38
2023-09-30T01:01:30.302Z,63.30
2023-09-30T01:04:18.911Z,64.68
2023-09-30T01:07:07.358Z,63.91
2023-09-30T01:09:55.209Z,64.16
2023-09-30T01:12:43.805Z,63.88
2023-09-30T01:15:31.972Z,63.94
2023-09-30T01:18:21.154Z,64.14
2023-09-30T01:21:09.656Z,66.37
2023-09-30T01:23:58.888Z,67.84
2023-09-30T01:26:46.916Z,63.35
2023-09-30T01:29:34.709Z,65.00
2023-09-30T01:32:22.588Z,65.28
2023-09-30T01:35:11.069Z,64.30
2023-09-30T01:37:58.796Z,66.08
2023-09-30T01:40:48.488Z,65.28
2023-09-30T01:43:37.610Z,63.19
2023-09-30T01:46:25.401Z,63.11
2023-09-30T01:49:13.172Z,66.49
2023-09-30T01:52:00.820Z,63.82
2023-09-30T01:54:48.959Z,63.39
2023-09-30T01:57:38.232Z,63.65
2023-09-30T02:00:26.290Z,64.70
2023-09-30T02:03:14.156Z,65.29
2023-09-30T02:06:02.174Z,63.43
2023-09-30T02:08:49.834Z,65.47
2023-09-30T02:11:37.725Z,66.96
2023-09-30T02:14:26.880Z,63.97
2023-09-30T02:17:14.614Z,63.75
2023-09-30T02:20:07.009Z,67.08
2023-09-30T02:22:55.582Z,64.05
2023-09-30T02:25:44.287Z,62.95
2023-09-30T02:28:33.331Z,63.65
2023-09-30T02:31:22.617Z,63.96
2023-09-30T02:34:10.731Z,63.06
2023-09-30T02:37:00.379Z,66.14
2023-09-30T02:39:48.449Z,64.68
2023-09-30T02:42:36.304Z,63.82
2023-09-30T02:45:24.372Z,63.43
2023-09-30T02:48:13.515Z,64.61
2023-09-30T02:51:01.324Z,64.74
2023-09-30T02:53:49.965Z,66.07
2023-09-30T02:56:37.845Z,64.25
2023-09-30T02:59:26.075Z,63.29
2023-09-30T03:02:13.819Z,63.56
2023-09-30T03:05:03.953Z,63.70
2023-09-30T03:07:52.869Z,63.80
2023-09-30T03:10:42.176Z,64.25
2023-09-30T03:13:30.161Z,63.70
2023-09-30T03:16:17.915Z,65.23
2023-09-30T03:19:09.387Z,63.67
2023-09-30T03:21:58.663Z,63.05
2023-09-30T03:24:46.812Z,63.21
2023-09-30T03:27:35.544Z,63.13
2023-09-30T03:30:23.393Z,63.00
2023-09-30T03:33:11.305Z,64.75
2023-09-30T03:36:00.343Z,64.17
2023-09-30T03:38:49.733Z,64.60
2023-09-30T03:41:38.706Z,63.29
2023-09-30T03:44:26.366Z,63.56
2023-09-30T03:47:14.128Z,64.79
2023-09-30T03:50:03.807Z,63.87
2023-09-30T03:52:51.716Z,66.27
2023-09-30T03:55:40.804Z,64.12
2023-09-30T03:58:28.835Z,67.22
2023-09-30T04:01:18.016Z,63.71
2023-09-30T04:04:06.643Z,63.77
2023-09-30T04:06:54.504Z,64.04
2023-09-30T04:09:42.533Z,67.36
2023-09-30T04:12:33.752Z,64.02
2023-09-30T04:15:21.632Z,64.34
2023-09-30T04:18:09.584Z,64.11
2023-09-30T04:20:58.075Z,65.45
2023-09-30T04:23:47.586Z,63.27
2023-09-30T04:26:35.879Z,63.25
2023-09-30T04:29:24.970Z,63.37
2023-09-30T04:32:13.024Z,64.30
2023-09-30T04:35:01.271Z,63.90
2023-09-30T04:37:49.529Z,63.46
2023-09-30T04:40:37.115Z,63.04
2023-09-30T04:43:25.022Z,62.78
2023-09-30T04:46:14.778Z,64.98
2023-09-30T04:49:03.977Z,62.79
2023-09-30T04:51:51.948Z,63.34
2023-09-30T04:54:39.711Z,62.68
2023-09-30T04:57:27.758Z,63.62
2023-09-30T05:00:18.195Z,63.75
2023-09-30T05:03:08.486Z,62.54
2023-09-30T05:05:58.037Z,63.56
2023-09-30T05:08:45.917Z,62.78
2023-09-30T05:11:34.314Z,62.66
2023-09-30T05:14:22.347Z,62.44
2023-09-30T05:17:10.394Z,62.51
2023-09-30T05:20:00.262Z,63.01
2023-09-30T05:22:49.871Z,62.57
2023-09-30T05:25:37.745Z,63.76
2023-09-30T05:28:25.525Z,62.61
2023-09-30T05:31:13.624Z,62.21
2023-09-30T05:34:02.186Z,62.59
2023-09-30T05:36:53.000Z,61.20
2023-09-30T05:39:40.808Z,61.35
2023-09-30T05:42:28.632Z,60.99
2023-09-30T05:45:16.921Z,61.08
2023-09-30T05:48:07.386Z,60.51
2023-09-30T05:50:55.344Z,60.33
2023-09-30T05:53:44.422Z,60.09
2023-09-30T05:56:32.118Z,60.08
2023-09-30T05:59:19.812Z,59.36
2023-09-30T06:02:07.817Z,59.86
2023-09-30T06:04:55.859Z,59.23
2023-09-30T06:07:46.412Z,59.42
2023-09-30T06:10:36.569Z,59.20
2023-09-30T06:13:24.289Z,61.22
2023-09-30T06:16:13.388Z,59.14
2023-09-30T06:19:01.143Z,58.78
2023-09-30T06:21:48.981Z,60.90
2023-09-30T06:24:37.997Z,58.89
2023-09-30T06:27:27.320Z,58.27
2023-09-30T06:30:18.122Z,58.74
2023-09-30T06:33:07.878Z,56.68
2023-09-30T06:35:55.861Z,55.33
2023-09-30T06:38:44.117Z,53.58
2023-09-30T06:41:32.016Z,54.25
2023-09-30T06:44:21.947Z,52.98
2023-09-30T06:47:13.319Z,53.51
2023-09-30T06:50:01.065Z,52.70
2023-09-30T06:52:50.847Z,51.95
2023-09-30T06:55:40.899Z,51.39
2023-09-30T06:58:28.853Z,51.03
2023-09-30T07:01:19.480Z,51.02
2023-09-30T07:04:07.791Z,51.40
2023-09-30T07:06:55.801Z,49.64
2023-09-30T07:09:44.751Z,49.53
2023-09-30T07:12:33.057Z,49.23
2023-09-30T07:15:20.826Z,50.24
2023-09-30T07:18:10.478Z,48.76
2023-09-30T07:20:58.351Z,47.04
2023-09-30T07:23:46.174Z,47.35
2023-09-30T07:26:33.885Z,47.24
2023-09-30T07:29:21.595Z,47.73
2023-09-30T07:32:09.907Z,47.12
2023-09-30T07:34:58.968Z,47.50
2023-09-30T07:37:47.022Z,46.29
2023-09-30T07:40:34.969Z,49.48
2023-09-30T07:43:23.221Z,47.78
2023-09-30T07:46:11.052Z,45.82
2023-09-30T07:49:00.247Z,45.68
2023-09-30T07:51:49.701Z,45.15
2023-09-30T07:54:37.730Z,44.50
2023-09-30T07:57:25.657Z,43.89
2023-09-30T08:00:17.355Z,45.42
2023-09-30T08:03:05.817Z,44.05
2023-09-30T08:05:53.511Z,44.45
2023-09-30T08:08:42.636Z,43.93
2023-09-30T08:11:33.464Z,43.55
2023-09-30T08:14:21.328Z,41.83
2023-09-30T08:17:09.255Z,42.18
2023-09-30T08:19:57.053Z,42.20
2023-09-30T08:22:46.082Z,42.91
2023-09-30T08:25:35.157Z,43.42
2023-09-30T08:28:23.588Z,41.93
2023-09-30T08:31:11.435Z,39.62
2023-09-30T08:33:59.145Z,42.27
2023-09-30T08:36:47.171Z,42.71
2023-09-30T08:39:36.243Z,40.33
2023-09-30T08:42:26.708Z,41.59
2023-09-30T08:45:17.145Z,40.27
2023-09-30T08:48:06.614Z,40.07
2023-09-30T08:50:57.013Z,39.31
2023-09-30T08:53:46.573Z,39.11
2023-09-30T08:56:35.104Z,39.78
2023-09-30T08:59:25.570Z,38.49
2023-09-30T09:02:13.306Z,39.76
2023-09-30T09:05:02.742Z,39.17
2023-09-30T09:07:51.675Z,38.10
2023-09-30T09:10:56.054Z,37.40
2023-09-30T09:13:51.919Z,35.07
2023-09-30T09:16:54.260Z,36.32
2023-09-30T09:19:42.342Z,37.95
2023-09-30T09:22:40.607Z,36.87
2023-09-30T09:25:28.451Z,36.98
2023-09-30T09:28:17.854Z,36.33
2023-09-30T09:31:24.153Z,36.53
2023-09-30T09:34:16.952Z,34.21
2023-09-30T09:37:16.303Z,35.59
2023-09-30T09:40:05.202Z,34.55
2023-09-30T09:42:55.921Z,34.94
2023-09-30T09:45:44.974Z,35.44
2023-09-30T09:48:33.547Z,34.89
2023-09-30T09:51:22.901Z,35.51
2023-09-30T09:54:10.973Z,35.09
2023-09-30T09:57:01.934Z,35.03
2023-09-30T09:59:50.569Z,35.21
2023-09-30T10:02:39.065Z,37.11
2023-09-30T10:05:28.638Z,33.74
2023-09-30T10:08:21.044Z,35.92
2023-09-30T10:11:09.362Z,35.23
2023-09-30T10:13:58.266Z,34.41
2023-09-30T10:16:53.401Z,33.54
2023-09-30T10:20:09.049Z,36.56
2023-09-30T10:23:21.694Z,34.52
2023-09-30T10:26:19.464Z,34.67
2023-09-30T10:29:11.786Z,34.20
2023-09-30T10:31:59.514Z,34.12
2023-09-30T10:34:50.950Z,36.28
2023-09-30T10:37:39.278Z,35.29
2023-09-30T10:40:30.683Z,33.89
2023-09-30T10:43:32.048Z,34.85
2023-09-30T10:46:35.141Z,34.69
2023-09-30T10:49:40.884Z,33.85
2023-09-30T10:52:28.898Z,34.71
2023-09-30T10:55:21.588Z,35.88
2023-09-30T10:58:11.230Z,35.83
2023-09-30T11:00:59.290Z,35.45
2023-09-30T11:03:49.021Z,35.65
2023-09-30T11:06:37.226Z,34.79
2023-09-30T11:09:25.590Z,35.19
2023-09-30T11:12:16.753Z,35.39
2023-09-30T11:15:07.108Z,34.56
2023-09-30T11:17:54.924Z,36.41
2023-09-30T11:20:42.899Z,34.29
2023-09-30T11:23:30.828Z,36.14
2023-09-30T11:26:18.816Z,34.20
2023-09-30T11:29:10.839Z,35.31
2023-09-30T11:31:59.891Z,34.35
2023-09-30T11:34:47.893Z,35.91
2023-09-30T11:37:35.824Z,35.39
2023-09-30T11:40:24.490Z,34.61
2023-09-30T11:43:13.681Z,33.39
2023-09-30T11:46:10.022Z,33.11
2023-09-30T11:49:03.414Z,34.29
2023-09-30T11:51:52.023Z,32.95
2023-09-30T11:54:42.668Z,32.49
2023-09-30T11:57:30.567Z,32.51
2023-09-30T12:00:19.097Z,34.52
2023-09-30T12:03:07.860Z,32.96
2023-09-30T12:05:57.467Z,32.47
2023-09-30T12:08:46.467Z,33.76
2023-09-30T12:11:34.442Z,33.43
2023-09-30T12:14:22.732Z,33.67
2023-09-30T12:17:13.624Z,31.46
2023-09-30T12:20:01.719Z,31.34
2023-09-30T12:22:51.172Z,32.92
2023-09-30T12:25:39.053Z,33.84
2023-09-30T12:28:28.127Z,31.82
2023-09-30T12:31:16.890Z,34.91
2023-09-30T12:34:04.721Z,32.04
2023-09-30T12:36:52.845Z,34.05
2023-09-30T12:39:42.035Z,32.79
2023-09-30T12:42:30.983Z,33.38
2023-09-30T12:45:19.315Z,32.50
2023-09-30T12:48:08.354Z,31.97
2023-09-30T12:50:56.052Z,34.37
2023-09-30T12:53:43.919Z,36.54
2023-09-30T12:56:34.178Z,34.00
2023-09-30T12:59:25.480Z,34.02
2023-09-30T13:02:13.251Z,34.37
2023-09-30T13:05:01.482Z,35.18
2023-09-30T13:07:49.246Z,33.17
2023-09-30T13:10:39.008Z,35.61
2023-09-30T13:13:28.038Z,34.46
2023-09-30T13:16:16.017Z,33.21
2023-09-30T13:19:04.363Z,32.72
2023-09-30T13:21:54.210Z,34.90
2023-09-30T13:24:43.615Z,32.81
2023-09-30T13:27:31.416Z,33.46
2023-09-30T13:30:20.681Z,34.66
2023-09-30T13:33:08.583Z,33.94
2023-09-30T13:35:57.194Z,31.60
2023-09-30T13:38:45.538Z,35.43
2023-09-30T13:41:36.419Z,32.17
2023-09-30T13:44:24.181Z,31.87
2023-09-30T13:47:13.260Z,32.88
2023-09-30T13:50:01.301Z,33.92
2023-09-30T13:52:48.987Z,35.61
2023-09-30T13:55:40.678Z,33.44
2023-09-30T13:58:28.746Z,35.13
2023-09-30T14:01:16.694Z,36.84
2023-09-30T14:04:06.099Z,34.40
2023-09-30T14:06:53.996Z,35.27
2023-09-30T14:09:41.881Z,34.79
2023-09-30T14:12:29.880Z,36.52
2023-09-30T14:15:17.846Z,37.98
2023-09-30T14:18:06.431Z,33.74
2023-09-30T14:20:55.572Z,32.47
2023-09-30T14:23:43.296Z,37.08
2023-09-30T14:26:31.040Z,36.14
2023-09-30T14:29:18.882Z,33.61
2023-09-30T14:32:08.291Z,35.71
2023-09-30T14:34:56.486Z,33.83
2023-09-30T14:37:45.813Z,37.31
2023-09-30T14:40:38.701Z,35.59
2023-09-30T14:43:26.542Z,36.24
2023-09-30T14:46:14.266Z,36.19
2023-09-30T14:49:02.335Z,34.95
2023-09-30T14:51:50.538Z,37.05
2023-09-30T14:54:40.106Z,36.78
2023-09-30T14:57:27.981Z,36.61
2023-09-30T15:00:16.677Z,38.21
2023-09-30T15:03:04.921Z,35.14
2023-09-30T15:06:00.343Z,36.62
2023-09-30T15:08:48.161Z,36.21
2023-09-30T15:11:37.317Z,37.72
2023-09-30T15:14:25.012Z,39.42
2023-09-30T15:17:12.662Z,39.08
2023-09-30T15:20:01.012Z,35.57
2023-09-30T15:22:48.971Z,36.10
2023-09-30T15:25:41.335Z,35.40
2023-09-30T15:28:30.444Z,39.48
2023-09-30T15:31:18.203Z,36.63
2023-09-30T15:34:06.896Z,39.30
2023-09-30T15:36:54.765Z,35.24
2023-09-30T15:39:43.661Z,36.27
2023-09-30T15:42:31.764Z,36.30
2023-09-30T15:45:21.096Z,37.32
2023-09-30T15:48:08.920Z,36.21
2023-09-30T15:50:56.829Z,35.99
2023-09-30T15:53:45.688Z,38.11
2023-09-30T15:56:42.248Z,35.06
2023-09-30T15:59:41.615Z,35.28
2023-09-30T16:02:31.460Z,36.61
2023-09-30T16:05:19.320Z,36.11
2023-09-30T16:08:08.170Z,37.29
2023-09-30T16:10:55.951Z,38.08
2023-09-30T16:13:43.595Z,36.56
2023-09-30T16:16:31.375Z,36.90
2023-09-30T16:19:20.567Z,36.97
2023-09-30T16:22:08.316Z,36.97
2023-09-30T16:24:56.394Z,37.72
2023-09-30T16:27:44.330Z,36.83
2023-09-30T16:30:32.487Z,41.00
2023-09-30T16:33:25.741Z,37.49
2023-09-30T16:36:16.417Z,37.28
2023-09-30T16:39:04.764Z,37.35
2023-09-30T16:41:52.457Z,37.48
2023-09-30T16:44:40.189Z,37.60
2023-09-30T16:47:28.233Z,39.43
2023-09-30T16:50:16.054Z,39.89
2023-09-30T16:53:05.439Z,38.71
2023-09-30T16:55:53.804Z,38.41
2023-09-30T16:58:41.784Z,38.64
2023-09-30T17:01:30.117Z,39.27
2023-09-30T17:04:18.218Z,41.00
2023-09-30T17:07:06.082Z,37.87
2023-09-30T17:09:55.262Z,38.64
2023-09-30T17:12:45.577Z,40.12
2023-09-30T17:15:33.516Z,38.76
2023-09-30T17:18:21.779Z,38.93
2023-09-30T17:21:09.793Z,39.94
2023-09-30T17:23:58.103Z,39.36
2023-09-30T17:26:47.320Z,38.98
2023-09-30T17:29:35.216Z,38.78
2023-09-30T17:32:22.931Z,38.57
2023-09-30T17:35:11.131Z,38.76
2023-09-30T17:37:59.101Z,39.42
2023-09-30T17:40:46.882Z,39.63
2023-09-30T17:43:36.876Z,38.16
2023-09-30T17:46:24.780Z,38.49
2023-09-30T17:49:12.705Z,38.27
2023-09-30T17:52:00.821Z,37.67
2023-09-30T17:54:48.654Z,38.46
2023-09-30T17:57:36.640Z,38.69
2023-09-30T18:00:28.321Z,38.42
2023-09-30T18:03:16.781Z,38.63
2023-09-30T18:06:08.277Z,38.54
2023-09-30T18:08:56.789Z,38.63
2023-09-30T18:11:44.724Z,39.35
2023-09-30T18:14:32.818Z,41.79
2023-09-30T18:17:22.394Z,38.10
2023-09-30T18:20:11.764Z,39.49
2023-09-30T18:22:59.673Z,38.95
2023-09-30T18:25:47.843Z,39.55
2023-09-30T18:28:36.127Z,39.16
2023-09-30T18:31:24.462Z,39.32
2023-09-30T18:34:13.965Z,38.84
2023-09-30T18:37:02.152Z,39.99
2023-09-30T18:39:51.741Z,41.98
2023-09-30T18:42:39.943Z,38.97
2023-09-30T18:45:29.955Z,40.92
2023-09-30T18:48:18.394Z,40.14
2023-09-30T18:51:09.190Z,40.19
2023-09-30T18:53:57.312Z,40.26
2023-09-30T18:56:45.533Z,41.38
2023-09-30T18:59:33.835Z,40.41
2023-09-30T19:02:21.674Z,40.65
2023-09-30T19:05:10.693Z,40.27
2023-09-30T19:08:00.270Z,40.22
2023-09-30T19:10:49.696Z,41.87
2023-09-30T19:13:40.857Z,39.81
2023-09-30T19:16:30.136Z,40.31
2023-09-30T19:19:18.182Z,41.09
2023-09-30T19:22:06.957Z,41.05
2023-09-30T19:24:56.432Z,41.87
2023-09-30T19:27:44.475Z,40.85
2023-09-30T19:30:32.659Z,41.17
2023-09-30T19:33:20.520Z,40.52
2023-09-30T19:36:09.629Z,40.84
2023-09-30T19:38:57.470Z,40.79
2023-09-30T19:41:47.116Z,40.91
2023-09-30T19:44:35.852Z,40.76
2023-09-30T19:47:24.896Z,41.60
2023-09-30T19:50:13.017Z,40.99
2023-09-30T19:53:00.652Z,42.10
2023-09-30T19:55:49.906Z,41.84
2023-09-30T19:58:39.482Z,41.75
2023-09-30T20:01:27.793Z,44.35
2023-09-30T20:04:16.609Z,42.23
2023-09-30T20:07:05.104Z,44.70
2023-09-30T20:09:54.211Z,44.19
2023-09-30T20:12:42.407Z,42.23
2023-09-30T20:15:31.824Z,42.80
2023-09-30T20:18:19.784Z,44.13
2023-09-30T20:21:07.535Z,42.91
2023-09-30T20:26:43.197Z,42.55
2023-09-30T20:29:31.257Z,43.26
2023-09-30T20:32:20.353Z,45.57
2023-09-30T20:35:10.081Z,43.34
2023-09-30T20:37:57.856Z,48.30
2023-09-30T20:40:45.705Z,43.86
2023-09-30T20:43:33.645Z,46.36
2023-09-30T20:46:21.441Z,44.96
2023-09-30T20:49:11.472Z,44.76
2023-09-30T20:52:00.230Z,43.81
2023-09-30T20:54:48.465Z,45.10
2023-09-30T20:57:36.247Z,44.23
2023-09-30T21:00:25.297Z,43.89
2023-09-30T21:03:13.362Z,43.20
2023-09-30T21:06:07.199Z,43.98
2023-09-30T21:08:54.967Z,46.04
2023-09-30T21:11:43.019Z,41.82
2023-09-30T21:14:30.775Z,42.08
2023-09-30T21:17:18.582Z,43.29
2023-09-30T21:20:08.039Z,43.39
2023-09-30T21:22:57.401Z,42.79
2023-09-30T21:25:45.825Z,44.51
2023-09-30T21:28:33.650Z,44.39
2023-09-30T21:31:25.228Z,45.45
2023-09-30T21:34:13.488Z,42.67
2023-09-30T21:37:01.691Z,43.12
2023-09-30T21:39:51.026Z,42.42
2023-09-30T21:42:38.995Z,45.42
2023-09-30T21:45:26.701Z,42.82
2023-09-30T21:48:14.388Z,42.97
2023-09-30T21:51:02.184Z,43.40
2023-09-30T21:53:49.945Z,44.93
2023-09-30T21:56:39.009Z,43.45
2023-09-30T21:59:26.656Z,43.71
2023-09-30T22:02:15.599Z,43.49
2023-09-30T22:05:03.336Z,41.71
2023-09-30T22:07:51.358Z,42.23
2023-09-30T22:10:39.173Z,42.39
2023-09-30T22:13:28.862Z,46.26
2023-09-30T22:16:16.884Z,44.42
2023-09-30T22:19:04.672Z,43.07
2023-09-30T22:21:53.133Z,43.93
2023-09-30T22:24:40.912Z,43.10
2023-09-30T22:27:28.910Z,43.68
2023-09-30T22:30:18.255Z,43.65
2023-09-30T22:33:07.205Z,45.98
2023-09-30T22:35:54.986Z,46.43
2023-09-30T22:38:42.632Z,43.96
2023-09-30T22:41:30.510Z,50.56
2023-09-30T22:44:19.057Z,44.60
2023-09-30T22:47:08.407Z,44.80
2023-09-30T22:49:57.945Z,45.22
2023-09-30T22:52:47.761Z,45.50
2023-09-30T22:55:36.301Z,44.52
2023-09-30T22:58:24.113Z,44.48
2023-09-30T23:01:17.127Z,46.87
2023-09-30T23:04:07.480Z,45.04
2023-09-30T23:06:55.604Z,46.38
2023-09-30T23:09:44.088Z,45.92
2023-09-30T23:12:31.866Z,45.50
2023-09-30T23:15:21.413Z,45.45
2023-09-30T23:18:10.172Z,47.37
2023-09-30T23:20:59.846Z,46.00
2023-09-30T23:23:47.540Z,46.35
2023-09-30T23:26:35.614Z,46.64
2023-09-30T23:29:23.286Z,47.29
2023-09-30T23:32:12.001Z,46.56
2023-09-30T23:35:00.503Z,47.25
2023-09-30T23:37:53.796Z,49.56
2023-09-30T23:40:42.134Z,51.59
2023-09-30T23:43:30.463Z,47.94
2023-09-30T23:46:18.266Z,48.61
2023-09-30T23:49:07.754Z,48.98
2023-09-30T23:51:56.052Z,48.82
2023-09-30T23:54:46.811Z,51.77
2023-09-30T23:57:38.101Z,48.91
